Time;durP1;ratioP1;P1;durP2;ratioP2;P2;SDS_P1;SDS_P2;PMS_P1;PMS_P2;Temp;Humidity;BMP_temperature;BMP_pressure;BME280_temperature;BME280_humidity;BME280_pressure;Samples;Min_cycle;Max_cycle;Signal;HPM_P1;HPM_P2
2021/01/08 00:02:21;;;;;;;2.52;1.77;;;;;;;0.53;90.62;99133.28;1832668;77;21167;-69
2021/01/08 00:04:49;;;;;;;2.98;1.92;;;;;;;0.55;90.64;99131.12;1850259;77;21158;-69
2021/01/08 00:07:17;;;;;;;3.42;2.15;;;;;;;0.56;90.16;99135.41;1850032;77;21450;-69
2021/01/08 00:09:45;;;;;;;2.08;1.70;;;;;;;0.56;89.81;99135.41;1849895;77;21135;-70
2021/01/08 00:12:13;;;;;;;2.47;1.70;;;;;;;0.58;89.77;99136.25;1850131;77;21598;-70
2021/01/08 00:14:41;;;;;;;2.67;2.20;;;;;;;0.57;89.49;99138.41;1849647;77;21130;-69
2021/01/08 00:17:09;;;;;;;2.58;1.85;;;;;;;0.58;89.76;99145.31;1850089;77;21178;-71
2021/01/08 00:19:37;;;;;;;2.10;1.90;;;;;;;0.59;89.28;99141.84;1849767;77;21348;-71
2021/01/08 00:22:04;;;;;;;2.65;2.10;;;;;;;0.61;89.38;99158.22;1849860;77;21151;-71
2021/01/08 00:24:32;;;;;;;2.00;1.50;;;;;;;0.59;88.97;99143.12;1849970;77;21171;-71
2021/01/08 00:27:05;;;;;;;2.80;2.00;;;;;;;0.59;88.68;99148.31;1849990;77;21171;-70
2021/01/08 00:29:32;;;;;;;2.12;1.92;;;;;;;0.57;88.82;99157.83;1849931;77;21162;-70
2021/01/08 00:32:04;;;;;;;2.05;1.80;;;;;;;0.57;88.99;99155.69;1850348;77;21370;-70
2021/01/08 00:34:32;;;;;;;2.98;1.67;;;;;;;0.53;88.91;99158.77;1850090;77;21114;-70
2021/01/08 00:37:00;;;;;;;2.20;1.70;;;;;;;0.55;89.16;99159.61;1850052;77;21443;-70
2021/01/08 00:39:28;;;;;;;3.42;1.72;;;;;;;0.57;89.29;99166.05;1850126;77;21598;-70
2021/01/08 00:41:56;;;;;;;2.67;1.77;;;;;;;0.57;89.40;99160.42;1849995;77;21123;-70
2021/01/08 00:44:24;;;;;;;3.15;1.85;;;;;;;0.58;89.27;99171.67;1850061;77;21249;-69
2021/01/08 00:46:52;;;;;;;3.25;1.70;;;;;;;0.54;88.54;99169.54;1851575;77;21665;-69
2021/01/08 00:49:20;;;;;;;2.90;1.80;;;;;;;0.56;88.85;99174.27;1857977;77;21186;-71
2021/01/08 00:51:48;;;;;;;2.02;1.52;;;;;;;0.56;88.86;99176.86;1825176;77;21720;-71
2021/01/08 00:54:17;;;;;;;1.80;1.70;;;;;;;0.59;89.05;99163.86;1858441;77;21213;-69
2021/01/08 00:56:48;;;;;;;2.00;1.62;;;;;;;0.56;88.70;99176.02;1857940;77;21154;-69
2021/01/08 00:59:17;;;;;;;2.20;1.70;;;;;;;0.57;88.60;99179.86;1851459;77;21117;-70
2021/01/08 01:01:45;;;;;;;1.70;1.60;;;;;;;0.59;88.55;99171.63;1855852;77;21158;-68
2021/01/08 01:04:13;;;;;;;2.47;1.80;;;;;;;0.58;88.60;99173.81;1824771;78;21573;-67
2021/01/08 01:06:41;;;;;;;2.47;1.72;;;;;;;0.56;88.52;99176.86;1824498;78;21157;-66
2021/01/08 01:09:10;;;;;;;3.10;2.00;;;;;;;0.56;88.70;99178.16;1824759;78;22223;-68
2021/01/08 01:11:38;;;;;;;2.00;1.80;;;;;;;0.59;88.84;99183.30;1824594;78;21897;-68
2021/01/08 01:14:06;;;;;;;2.17;1.72;;;;;;;0.53;88.22;99178.20;1824826;78;21176;-68
2021/01/08 01:16:34;;;;;;;2.05;1.80;;;;;;;0.57;88.28;99181.16;1824601;78;21624;-66
2021/01/08 01:19:03;;;;;;;2.30;1.80;;;;;;;0.59;88.08;99174.67;1824757;78;21185;-67
2021/01/08 01:21:30;;;;;;;1.98;1.70;;;;;;;0.59;88.06;99192.36;1824831;78;22265;-68
2021/01/08 01:23:58;;;;;;;2.40;1.70;;;;;;;0.59;87.89;99186.33;1824497;78;21548;-67
2021/01/08 01:26:26;;;;;;;2.27;1.60;;;;;;;0.59;88.16;99187.18;1824708;78;21604;-68
2021/01/08 01:28:54;;;;;;;1.87;1.65;;;;;;;0.58;87.67;99201.02;1825193;78;21184;-67
2021/01/08 01:31:22;;;;;;;2.72;1.35;;;;;;;0.54;87.15;99196.74;1824495;78;21125;-67
2021/01/08 01:33:50;;;;;;;2.30;1.80;;;;;;;0.52;87.17;99195.90;1824533;78;21330;-67
2021/01/08 01:36:19;;;;;;;2.27;1.72;;;;;;;0.51;86.98;99206.30;1824773;78;21182;-68
2021/01/08 01:38:47;;;;;;;2.42;1.70;;;;;;;0.51;86.66;99185.13;1824550;78;21146;-66
2021/01/08 01:41:14;;;;;;;1.67;1.57;;;;;;;0.49;86.81;99206.31;1824652;78;21216;-68
2021/01/08 01:43:42;;;;;;;2.70;1.85;;;;;;;0.48;86.71;99205.88;1824463;78;21191;-69
2021/01/08 01:46:19;;;;;;;1.45;1.35;;;;;;;0.49;86.89;99203.72;1824630;78;21340;-68
2021/01/08 01:48:50;;;;;;;1.65;1.37;;;;;;;0.50;86.62;99217.52;1824548;78;21310;-69
2021/01/08 01:51:18;;;;;;;;;;;;;;;0.50;86.56;99218.38;1826912;78;21149;-70
2021/01/08 01:53:48;;;;;;;1.85;1.50;;;;;;;0.52;86.88;99224.40;1824712;78;20234;-69
2021/01/08 01:56:17;;;;;;;1.90;1.55;;;;;;;0.49;87.10;99224.44;1824913;78;21588;-69
2021/01/08 01:58:47;;;;;;;1.75;1.60;;;;;;;0.50;87.46;99235.66;1824507;78;21635;-69
2021/01/08 02:01:16;;;;;;;3.20;2.00;;;;;;;0.50;87.61;99227.44;1824565;78;21177;-70
2021/01/08 02:03:49;;;;;;;1.72;1.55;;;;;;;0.51;87.42;99230.47;1854709;77;21197;-68
2021/01/08 02:06:20;;;;;;;2.45;1.80;;;;;;;0.50;87.05;99240.39;1826372;77;21143;-69
2021/01/08 02:08:54;;;;;;;;;;;;;;;0.53;87.10;99239.09;1860984;77;21158;-67
2021/01/08 02:11:26;;;;;;;1.60;1.50;;;;;;;0.50;86.34;99235.21;1857363;77;21581;-68
2021/01/08 02:14:10;;;;;;;2.42;1.52;;;;;;;0.45;86.00;99241.33;1824548;78;21189;-68
2021/01/08 02:16:39;;;;;;;1.98;1.50;;;;;;;0.48;86.04;99242.58;1824645;78;21590;-69
2021/01/08 02:19:10;;;;;;;2.80;2.00;;;;;;;0.51;86.03;99244.72;1824599;78;21174;-68
2021/01/08 02:21:58;;;;;;;2.15;1.75;;;;;;;0.48;85.44;99242.58;1824489;78;21183;-69
2021/01/08 02:24:34;;;;;;;2.10;1.55;;;;;;;0.50;85.97;99241.69;1827441;78;21593;-70
2021/01/08 02:27:03;;;;;;;2.47;1.65;;;;;;;0.54;85.98;99236.91;1826197;78;21127;-69
2021/01/08 02:29:31;;;;;;;2.30;1.75;;;;;;;0.53;86.06;99240.38;1824507;78;21131;-68
2021/01/08 02:31:58;;;;;;;1.95;1.50;;;;;;;0.55;85.95;99249.41;1792920;78;21720;-67
2021/01/08 02:34:26;;;;;;;1.67;1.50;;;;;;;0.56;85.45;99252.00;1824603;78;21174;-68
2021/01/08 02:36:54;;;;;;;2.20;1.80;;;;;;;0.56;85.66;99259.77;1793080;78;21677;-68
2021/01/08 02:39:22;;;;;;;2.83;1.50;;;;;;;0.56;85.48;99246.81;1767502;78;22264;-68
2021/01/08 02:41:53;;;;;;;2.00;1.50;;;;;;;0.60;85.65;99248.51;1824493;78;21138;-69
2021/01/08 02:44:21;;;;;;;1.87;1.62;;;;;;;0.59;85.26;99257.14;1824667;78;21178;-69
2021/01/08 02:46:49;;;;;;;1.98;1.65;;;;;;;0.61;85.73;99261.87;1824559;78;21139;-68
2021/01/08 02:49:17;;;;;;;2.20;1.42;;;;;;;0.62;85.40;99267.48;1824604;78;21355;-69
2021/01/08 02:51:45;;;;;;;2.00;1.60;;;;;;;0.61;84.89;99257.98;1824577;78;21174;-69
2021/01/08 02:54:13;;;;;;;2.08;1.75;;;;;;;0.60;85.31;99265.34;1824613;78;21139;-68
2021/01/08 02:56:46;;;;;;;1.98;1.50;;;;;;;0.66;85.23;99275.22;1837610;77;21166;-68
2021/01/08 02:59:14;;;;;;;1.45;1.35;;;;;;;0.66;84.92;99276.07;1858387;77;21559;-69
2021/01/08 03:01:44;;;;;;;2.12;1.65;;;;;;;0.67;85.47;99289.47;1854444;77;21218;-67
2021/01/08 03:04:13;;;;;;;1.77;1.37;;;;;;;0.65;85.59;99278.26;1781461;79;21519;-68
2021/01/08 03:06:43;;;;;;;1.70;1.45;;;;;;;0.67;85.66;99282.11;1812229;78;21682;-68
2021/01/08 03:09:11;;;;;;;1.70;1.57;;;;;;;0.71;86.11;99286.39;1812622;78;21221;-68
2021/01/08 03:11:38;;;;;;;2.02;1.82;;;;;;;0.69;86.03;99286.42;1812464;79;22255;-68
2021/01/08 03:14:07;;;;;;;2.67;1.70;;;;;;;0.67;86.38;99284.70;1812658;79;21362;-68
2021/01/08 03:16:35;;;;;;;1.90;1.60;;;;;;;0.68;86.51;99294.20;1812550;79;21194;-67
2021/01/08 03:19:03;;;;;;;2.00;1.70;;;;;;;0.65;86.98;99299.43;1813915;79;21139;-67
2021/01/08 03:21:32;;;;;;;2.00;1.80;;;;;;;0.66;87.24;99303.72;1813232;79;21272;-67
2021/01/08 03:24:01;;;;;;;3.58;1.85;;;;;;;0.62;87.57;99305.06;1812895;79;21660;-68
2021/01/08 03:26:29;;;;;;;3.95;2.10;;;;;;;0.62;87.81;99308.95;1814677;78;21246;-68
2021/01/08 03:28:57;;;;;;;2.37;1.87;;;;;;;0.63;87.96;99313.24;1827864;77;21190;-67
2021/01/08 03:31:25;;;;;;;2.87;2.20;;;;;;;0.60;88.15;99302.92;1827868;78;21169;-69
2021/01/08 03:33:52;;;;;;;2.02;1.77;;;;;;;0.57;88.42;99308.11;1828046;78;21153;-71
2021/01/08 03:36:20;;;;;;;2.70;1.87;;;;;;;0.57;88.48;99306.81;1828107;78;21609;-68
2021/01/08 03:38:48;;;;;;;3.35;1.87;;;;;;;0.55;88.52;99306.00;1827925;78;22390;-68
2021/01/08 03:41:16;;;;;;;2.83;2.05;;;;;;;0.55;88.64;99317.66;1828022;78;21660;-69
2021/01/08 03:43:44;;;;;;;2.75;1.85;;;;;;;0.56;88.80;99321.95;1827994;78;21162;-69
2021/01/08 03:46:12;;;;;;;3.22;2.20;;;;;;;0.54;88.81;99322.41;1828169;78;22055;-70
2021/01/08 03:48:40;;;;;;;3.12;2.10;;;;;;;0.55;88.84;99326.73;1827762;78;21201;-70
2021/01/08 03:51:08;;;;;;;3.85;2.15;;;;;;;0.55;88.77;99334.91;1827933;78;21360;-70
2021/01/08 03:53:36;;;;;;;3.45;2.33;;;;;;;0.58;88.88;99340.09;1827950;78;21131;-69
2021/01/08 03:56:05;;;;;;;3.80;2.62;;;;;;;0.57;88.79;99336.61;1828062;78;21194;-68
2021/01/08 03:58:34;;;;;;;4.00;2.70;;;;;;;0.59;88.73;99343.94;1829637;77;21616;-70
2021/01/08 04:01:02;;;;;;;3.72;2.50;;;;;;;0.62;88.49;99339.16;1858226;77;21182;-70
2021/01/08 04:03:29;;;;;;;3.47;2.58;;;;;;;0.62;88.58;99340.05;1852880;77;22235;-69
2021/01/08 04:05:57;;;;;;;5.00;2.95;;;;;;;0.65;88.52;99352.11;1858087;77;21186;-69
2021/01/08 04:08:25;;;;;;;9.40;2.80;;;;;;;0.63;87.98;99344.34;1858121;77;21534;-70
2021/01/08 04:10:53;;;;;;;5.17;3.02;;;;;;;0.65;87.92;99339.59;1858243;77;21177;-70
2021/01/08 04:13:21;;;;;;;6.83;3.62;;;;;;;0.66;87.43;99351.66;1842511;77;21189;-70
2021/01/08 04:15:50;;;;;;;4.78;3.33;;;;;;;0.68;87.27;99343.44;1824451;78;22774;-71
2021/01/08 04:18:19;;;;;;;4.62;2.98;;;;;;;0.72;87.06;99358.09;1824580;78;21190;-71
2021/01/08 04:20:47;;;;;;;3.85;2.85;;;;;;;0.74;86.49;99356.36;1824482;78;21170;-70
2021/01/08 04:23:15;;;;;;;3.70;2.80;;;;;;;0.78;86.36;99355.02;1824481;78;21165;-71
2021/01/08 04:25:42;;;;;;;3.85;3.00;;;;;;;0.84;86.35;99367.04;1824587;78;21693;-69
2021/01/08 04:28:10;;;;;;;3.50;3.02;;;;;;;0.85;86.52;99357.08;1824652;78;22277;-69
2021/01/08 04:30:38;;;;;;;4.33;3.05;;;;;;;0.87;86.48;99372.19;1824519;78;21157;-69
2021/01/08 04:33:06;;;;;;;3.37;2.85;;;;;;;0.91;86.08;99364.80;1825621;78;21244;-69
2021/01/08 04:35:34;;;;;;;4.33;2.95;;;;;;;0.94;85.95;99384.66;1824307;78;21589;-69
2021/01/08 04:38:02;;;;;;;4.17;3.37;;;;;;;0.95;85.75;99376.87;1824394;78;21193;-71
2021/01/08 04:40:29;;;;;;;5.28;3.20;;;;;;;0.99;86.14;99377.27;1824724;78;21204;-71
2021/01/08 04:42:58;;;;;;;4.62;3.50;;;;;;;1.00;85.97;99389.78;1824460;78;21593;-69
2021/01/08 04:45:26;;;;;;;4.83;3.35;;;;;;;1.01;86.01;99379.41;1824670;78;21098;-71
2021/01/08 04:47:54;;;;;;;5.15;3.60;;;;;;;1.00;86.03;99382.86;1824671;78;21764;-70
2021/01/08 04:50:22;;;;;;;5.70;3.62;;;;;;;1.03;86.10;99387.16;1792527;78;21202;-70
2021/01/08 04:52:49;;;;;;;6.45;4.15;;;;;;;1.05;86.28;99382.81;1815293;78;21656;-70
2021/01/08 04:55:17;;;;;;;5.22;3.65;;;;;;;1.05;86.24;99390.59;1815254;78;22014;-70
2021/01/08 04:57:46;;;;;;;4.40;3.45;;;;;;;1.06;86.25;99383.25;1789942;78;21562;-69
2021/01/08 05:00:15;;;;;;;5.03;3.50;;;;;;;1.07;86.46;99385.40;1824632;78;21162;-70
2021/01/08 05:02:43;;;;;;;4.62;3.47;;;;;;;1.04;86.37;99391.03;1824398;78;21197;-68
2021/01/08 05:05:13;;;;;;;4.83;3.65;;;;;;;1.05;86.42;99388.85;1824643;78;22113;-69
2021/01/08 05:07:40;;;;;;;7.15;4.00;;;;;;;1.09;86.35;99402.66;1824345;78;21218;-69
2021/01/08 05:10:10;;;;;;;6.40;4.10;;;;;;;1.10;86.07;99387.95;1824457;78;21158;-69
2021/01/08 05:12:41;;;;;;;5.70;3.77;;;;;;;1.12;86.44;99405.66;1825393;78;21136;-68
2021/01/08 05:15:14;;;;;;;5.42;3.67;;;;;;;1.16;86.55;99404.75;1824841;78;21387;-70
2021/01/08 05:17:43;;;;;;;7.72;4.50;;;;;;;1.14;86.05;99418.17;1824452;78;21206;-70
2021/01/08 05:20:12;;;;;;;6.90;4.30;;;;;;;1.16;86.30;99408.64;1824626;78;21255;-70
2021/01/08 05:22:40;;;;;;;5.83;4.12;;;;;;;1.17;86.31;99407.75;1824624;78;21617;-70
2021/01/08 05:25:10;;;;;;;6.10;4.35;;;;;;;1.20;86.62;99422.02;1804204;78;21202;-70
2021/01/08 05:27:38;;;;;;;5.83;4.30;;;;;;;1.22;86.55;99414.63;1825740;77;21636;-70
2021/01/08 05:30:15;;;;;;;6.62;4.37;;;;;;;1.24;86.47;99417.19;1858331;77;22304;-70
2021/01/08 05:32:44;;;;;;;7.53;4.80;;;;;;;1.24;86.51;99412.00;1849584;77;21204;-69
2021/01/08 05:35:16;;;;;;;5.47;4.00;;;;;;;1.27;86.52;99422.36;1858079;77;21377;-69
2021/01/08 05:37:47;;;;;;;7.50;4.35;;;;;;;1.26;86.42;99410.25;1858058;77;21139;-67
2021/01/08 05:40:15;;;;;;;6.72;4.45;;;;;;;1.30;86.82;99414.54;1858311;77;21182;-69
2021/01/08 05:42:56;;;;;;;8.33;4.95;;;;;;;1.32;86.64;99417.98;1858319;77;22331;-67
2021/01/08 05:45:29;;;;;;;7.97;5.03;;;;;;;1.32;86.91;99424.47;1858401;77;21142;-67
2021/01/08 05:47:58;;;;;;;9.45;4.50;;;;;;;1.36;86.86;99423.56;1858243;77;21182;-67
2021/01/08 05:50:28;;;;;;;6.53;4.55;;;;;;;1.38;86.29;99417.03;1858421;77;22093;-67
2021/01/08 05:53:06;;;;;;;7.70;4.87;;;;;;;1.38;86.59;99417.92;1858279;77;21135;-67
2021/01/08 05:55:42;;;;;;;7.40;4.62;;;;;;;1.41;86.65;99424.36;1858293;77;22111;-68
2021/01/08 05:58:25;;;;;;;7.05;4.92;;;;;;;1.43;86.43;99428.25;1858404;77;21579;-66
2021/01/08 06:00:59;;;;;;;6.95;4.85;;;;;;;1.45;86.08;99443.37;1858285;77;21134;-67
2021/01/08 06:03:27;;;;;;;7.47;4.83;;;;;;;1.45;86.00;99455.89;1832312;77;21145;-67
2021/01/08 06:05:58;;;;;;;10.78;5.40;;;;;;;1.44;86.37;99461.94;1824684;78;21576;-67
2021/01/08 06:08:50;;;;;;;7.40;5.20;;;;;;;1.42;86.11;99471.47;1824453;78;22080;-68
2021/01/08 06:11:30;;;;;;;9.98;5.92;;;;;;;1.43;86.29;99470.61;1814827;77;21249;-70
2021/01/08 06:14:01;;;;;;;9.85;6.15;;;;;;;1.43;85.98;99479.70;1825512;77;21157;-70
2021/01/08 06:16:40;;;;;;;8.98;5.95;;;;;;;1.44;86.11;99482.70;1789159;79;21226;-70
2021/01/08 06:19:07;;;;;;;10.25;6.10;;;;;;;1.45;85.99;99487.48;1789217;80;21185;-70
2021/01/08 06:21:43;;;;;;;10.68;6.25;;;;;;;1.48;85.68;99487.88;1760630;80;21629;-68
2021/01/08 06:24:26;;;;;;;10.75;5.80;;;;;;;1.46;85.72;99500.41;1789041;80;21874;-69
2021/01/08 06:26:54;;;;;;;10.23;6.08;;;;;;;1.37;85.69;99490.13;1808355;77;21626;-70
2021/01/08 06:29:24;;;;;;;10.10;5.90;;;;;;;1.49;85.59;99510.34;1822338;77;21174;-70
2021/01/08 06:31:54;;;;;;;11.65;6.47;;;;;;;1.53;86.14;99509.44;1833520;77;21724;-69
2021/01/08 06:34:27;;;;;;;12.37;6.83;;;;;;;1.51;85.72;99504.26;1821108;77;21252;-70
2021/01/08 06:37:07;;;;;;;12.68;7.05;;;;;;;1.55;86.05;99509.00;1811662;79;21146;-70
2021/01/08 06:39:44;;;;;;;14.68;7.83;;;;;;;1.57;85.46;99516.33;1811754;77;21198;-73
2021/01/08 06:42:27;;;;;;;16.57;8.70;;;;;;;1.55;85.31;99525.86;1811419;77;21167;-71
2021/01/08 06:44:55;;;;;;;15.70;8.33;;;;;;;1.55;85.09;99525.86;1811565;79;21182;-72
2021/01/08 06:47:23;;;;;;;19.00;9.78;;;;;;;1.55;84.72;99534.95;1809560;77;21850;-72
2021/01/08 06:49:53;;;;;;;14.58;8.23;;;;;;;1.53;84.72;99526.31;1828985;77;21129;-70
2021/01/08 06:52:21;;;;;;;14.65;8.30;;;;;;;1.54;84.79;99537.09;1828017;77;21141;-71
2021/01/08 06:54:53;;;;;;;15.48;8.38;;;;;;;1.58;85.32;99539.66;1807509;77;21645;-71
2021/01/08 06:57:21;;;;;;;16.10;8.40;;;;;;;1.59;85.29;99545.73;1813511;77;21134;-71
2021/01/08 06:59:55;;;;;;;19.05;8.60;;;;;;;1.58;85.43;99555.22;1811228;79;21388;-70
2021/01/08 07:02:27;;;;;;;18.20;9.80;;;;;;;1.60;85.01;99558.67;1815393;77;21271;-72
2021/01/08 07:04:56;;;;;;;19.55;9.40;;;;;;;1.60;85.07;99563.86;1821678;78;21196;-71
2021/01/08 07:07:26;;;;;;;18.75;9.83;;;;;;;1.59;84.92;99559.55;1838087;77;21839;-72
2021/01/08 07:09:55;;;;;;;21.48;11.18;;;;;;;1.61;85.12;99570.79;1806238;78;21836;-70
2021/01/08 07:12:25;;;;;;;23.38;10.40;;;;;;;1.62;84.23;99571.20;1763867;80;22767;-71
2021/01/08 07:14:53;;;;;;;21.20;11.35;;;;;;;1.60;84.03;99568.20;1820477;78;21610;-71
2021/01/08 07:17:31;;;;;;;20.68;10.65;;;;;;;1.63;84.48;99568.16;1798795;78;21220;-72
2021/01/08 07:20:01;;;;;;;22.87;11.55;;;;;;;1.63;84.08;99572.05;1815690;78;21151;-71
2021/01/08 07:22:39;;;;;;;23.60;11.83;;;;;;;1.66;84.07;99578.53;1810555;78;21646;-72
2021/01/08 07:25:12;;;;;;;22.85;12.23;;;;;;;1.65;83.83;99579.39;1820501;78;21339;-72
2021/01/08 07:27:43;;;;;;;25.08;12.23;;;;;;;1.66;83.88;99579.83;1808027;78;21175;-72
2021/01/08 07:30:13;;;;;;;24.35;12.50;;;;;;;1.67;84.05;99582.83;1809546;78;21175;-71
2021/01/08 07:32:47;;;;;;;27.30;13.58;;;;;;;1.66;83.57;99581.13;1812885;78;21223;-72
2021/01/08 07:35:27;;;;;;;21.97;11.25;;;;;;;1.66;83.75;99582.42;1784280;80;21113;-72
2021/01/08 07:38:07;;;;;;;28.30;14.10;;;;;;;1.70;84.07;99585.39;1784447;80;22053;-72
2021/01/08 07:40:37;;;;;;;29.18;13.62;;;;;;;1.73;83.80;99581.93;1783911;80;21191;-73
2021/01/08 07:43:07;;;;;;;26.97;12.80;;;;;;;1.73;83.76;99590.57;1802193;78;21151;-72
2021/01/08 07:45:55;;;;;;;24.45;13.35;;;;;;;1.76;83.58;99590.53;1820212;78;21182;-72
2021/01/08 07:48:34;;;;;;;26.25;12.98;;;;;;;1.79;83.50;99602.17;1787952;80;21206;-72
2021/01/08 07:51:14;;;;;;;21.85;11.03;;;;;;;1.80;83.69;99597.42;1785542;78;21286;-71
2021/01/08 07:53:46;;;;;;;26.00;12.45;;;;;;;1.84;84.22;99608.20;1811033;78;23936;-71
2021/01/08 07:56:19;;;;;;;26.12;11.83;;;;;;;1.86;83.99;99619.44;1820312;78;21462;-70
2021/01/08 08:01:40;;;;;;;25.27;12.90;;;;;;;1.86;83.19;99620.73;1965177;72;22726;-71
2021/01/08 08:04:11;;;;;;;22.27;12.28;;;;;;;1.79;82.99;99628.14;1872591;76;21151;-72
2021/01/08 08:08:51;;;;;;;23.77;11.93;;;;;;;1.84;83.53;99639.36;1805018;79;23256;-72
2021/01/08 08:11:25;;;;;;;22.85;11.63;;;;;;;1.78;82.93;99641.15;1762787;80;21120;-72
2021/01/08 08:13:49;;;;;;;29.67;13.88;;;;;;;1.77;82.60;99640.71;1749937;80;22184;-71
2021/01/08 08:16:17;;;;;;;26.10;12.88;;;;;;;1.76;82.85;99634.66;1722578;83;21648;-71
2021/01/08 08:18:51;;;;;;;23.42;11.93;;;;;;;1.79;83.20;99638.52;1752045;81;21190;-72
2021/01/08 08:21:21;;;;;;;22.17;9.98;;;;;;;1.77;83.42;99644.20;1722421;83;21187;-72
2021/01/08 08:23:58;;;;;;;21.25;11.28;;;;;;;1.78;82.88;99651.09;1702425;83;21662;-73
2021/01/08 08:26:27;;;;;;;25.27;11.75;;;;;;;1.80;82.98;99646.75;1711980;83;21209;-72
2021/01/08 08:29:13;;;;;;;25.40;12.25;;;;;;;1.82;82.75;99646.30;1730031;82;21860;-71
2021/01/08 08:31:50;;;;;;;25.00;12.15;;;;;;;1.83;82.51;99633.73;1720397;83;21175;-71
2021/01/08 08:34:31;;;;;;;22.22;11.53;;;;;;;1.84;82.13;99644.97;1724443;82;21191;-73
2021/01/08 08:37:07;;;;;;;24.27;11.28;;;;;;;1.84;81.81;99640.66;1726877;82;21206;-74
2021/01/08 08:39:35;;;;;;;21.90;11.25;;;;;;;1.85;81.61;99632.42;1731063;82;21461;-74
2021/01/08 08:42:04;;;;;;;15.85;8.73;;;;;;;1.85;82.10;99630.69;1722319;83;21644;-73
2021/01/08 08:44:43;;;;;;;18.87;10.35;;;;;;;1.85;81.75;99635.02;1728584;81;21169;-73
2021/01/08 08:47:12;;;;;;;18.05;9.65;;;;;;;1.80;81.57;99641.56;1704175;81;21235;-73
2021/01/08 08:49:44;;;;;;;20.52;9.60;;;;;;;1.76;81.79;99641.59;1715195;82;21211;-74
2021/01/08 08:52:11;;;;;;;19.12;10.00;;;;;;;1.72;82.14;99648.54;1739726;82;21203;-74
2021/01/08 08:54:40;;;;;;;17.00;9.18;;;;;;;1.72;81.95;99645.95;1739756;82;21179;-73
2021/01/08 08:57:09;;;;;;;20.32;10.05;;;;;;;1.73;82.14;99655.92;1740288;82;21649;-74
2021/01/08 08:59:45;;;;;;;20.43;9.03;;;;;;;1.73;82.12;99657.22;1739900;82;21227;-74
2021/01/08 09:02:27;;;;;;;24.32;9.30;;;;;;;1.72;81.61;99666.71;1738533;82;21629;-74
2021/01/08 09:04:59;;;;;;;14.70;9.15;;;;;;;1.73;81.61;99661.11;1739789;82;21640;-73
2021/01/08 09:07:42;;;;;;;17.90;9.20;;;;;;;1.72;81.43;99665.41;1734990;82;21207;-74
2021/01/08 09:10:15;;;;;;;16.15;9.08;;;;;;;1.73;82.22;99663.70;1724554;83;21184;-75
2021/01/08 09:12:51;;;;;;;19.15;9.10;;;;;;;1.74;82.31;99666.27;1732117;81;21165;-75
2021/01/08 09:15:36;;;;;;;15.70;7.85;;;;;;;1.77;81.96;99670.16;1732272;82;21180;-78
2021/01/08 09:18:44;;;;;;;18.45;8.05;;;;;;;1.81;82.84;99673.13;1731613;82;21211;-71
2021/01/08 09:21:39;;;;;;;19.40;9.57;;;;;;;1.89;81.76;99667.44;1844221;76;22688;-71
2021/01/08 09:24:13;;;;;;;16.55;8.95;;;;;;;1.88;82.07;99679.98;1811543;79;21135;-71
2021/01/08 09:26:44;;;;;;;19.80;9.30;;;;;;;1.93;81.45;99676.48;1816063;79;22142;-72
2021/01/08 09:29:11;;;;;;;18.32;9.30;;;;;;;1.94;81.77;99672.59;1810889;77;21653;-71
2021/01/08 09:31:47;;;;;;;19.42;10.53;;;;;;;1.94;82.00;99675.63;1811915;78;21200;-71
2021/01/08 09:34:23;;;;;;;20.32;10.80;;;;;;;1.97;82.37;99675.59;1809459;78;21171;-71
2021/01/08 09:36:53;;;;;;;22.32;12.20;;;;;;;1.97;81.37;99680.34;1748971;81;21208;-71
2021/01/08 09:39:24;;;;;;;27.42;13.15;;;;;;;1.95;81.40;99680.79;1768827;81;21704;-73
2021/01/08 09:41:58;;;;;;;19.60;11.30;;;;;;;1.92;81.14;99679.97;1805337;79;25790;-71
2021/01/08 09:44:37;;;;;;;23.50;9.80;;;;;;;1.88;80.88;99674.78;1773692;79;21629;-73
2021/01/08 09:47:08;;;;;;;17.80;10.08;;;;;;;1.88;80.42;99683.02;1784068;80;21150;-72
2021/01/08 09:49:48;;;;;;;22.25;11.68;;;;;;;1.85;80.71;99683.91;1784095;80;21573;-73
2021/01/08 09:52:16;;;;;;;20.25;9.85;;;;;;;1.84;80.91;99680.02;1754912;80;21372;-72
2021/01/08 09:54:51;;;;;;;21.62;11.00;;;;;;;1.88;81.60;99683.02;1752784;81;21162;-72
2021/01/08 09:57:35;;;;;;;18.82;10.90;;;;;;;1.93;81.61;99680.38;1752983;81;21628;-72
2021/01/08 10:00:08;;;;;;;25.30;12.07;;;;;;;1.94;81.69;99687.31;1772584;80;21152;-71
2021/01/08 10:02:43;;;;;;;27.32;13.18;;;;;;;1.92;81.28;99681.27;1763500;80;21214;-71
2021/01/08 10:05:24;;;;;;;;;;;;;;;1.87;80.53;99676.97;1768425;80;21378;-70
2021/01/08 10:07:51;;;;;;;20.97;11.85;;;;;;;1.83;80.38;99677.02;1752745;81;20267;-71
2021/01/08 10:10:31;;;;;;;19.30;9.10;;;;;;;1.79;80.43;99678.77;1761036;80;21551;-72
2021/01/08 10:12:59;;;;;;;19.30;11.23;;;;;;;1.74;80.19;99670.16;1764624;79;21609;-72
2021/01/08 10:15:47;;;;;;;18.57;9.83;;;;;;;1.74;80.49;99680.55;1725815;80;21134;-72
2021/01/08 10:18:25;;;;;;;20.82;10.82;;;;;;;1.76;80.78;99675.35;1713080;83;21775;-71
2021/01/08 10:20:55;;;;;;;19.20;10.65;;;;;;;1.77;81.02;99676.64;1744985;81;21649;-71
2021/01/08 10:23:24;;;;;;;20.57;10.50;;;;;;;1.80;81.13;99680.50;1783385;80;21190;-71
2021/01/08 10:25:53;;;;;;;18.73;10.68;;;;;;;1.87;81.36;99679.57;1781342;80;21662;-71
2021/01/08 10:28:24;;;;;;;19.12;10.68;;;;;;;1.92;80.52;99679.97;1778970;80;21216;-71
2021/01/08 10:30:54;;;;;;;19.95;11.18;;;;;;;1.89;79.93;99677.83;1765609;80;21351;-70
2021/01/08 10:33:25;;;;;;;19.35;10.82;;;;;;;1.86;79.81;99674.38;1766047;80;21178;-69
2021/01/08 10:35:55;;;;;;;22.27;11.88;;;;;;;1.86;79.79;99672.67;1771424;80;21182;-69
2021/01/08 10:38:24;;;;;;;20.10;10.48;;;;;;;1.83;79.49;99685.66;1781593;80;21236;-70
2021/01/08 10:40:52;;;;;;;18.57;10.05;;;;;;;1.76;79.20;99681.40;1777522;78;21190;-68
2021/01/08 10:43:20;;;;;;;18.57;10.03;;;;;;;1.73;79.25;99680.14;1777270;80;21190;-69
2021/01/08 10:45:49;;;;;;;16.20;9.00;;;;;;;1.74;79.62;99688.33;1763202;80;21683;-69
2021/01/08 10:48:19;;;;;;;20.25;10.72;;;;;;;1.77;80.18;99689.63;1780600;80;21165;-69
2021/01/08 10:50:47;;;;;;;23.22;11.55;;;;;;;1.76;80.00;99690.48;1776663;80;21183;-70
2021/01/08 10:53:15;;;;;;;18.35;9.83;;;;;;;1.74;80.42;99692.23;1777451;80;21199;-70
2021/01/08 10:55:50;;;;;;;21.77;10.35;;;;;;;1.76;80.55;99692.23;1779708;80;22274;-69
2021/01/08 10:58:19;;;;;;;19.15;9.83;;;;;;;1.76;80.14;99686.59;1768170;80;21169;-67
2021/01/08 11:00:47;;;;;;;20.10;10.95;;;;;;;1.76;79.75;99688.33;1772502;78;21594;-68
2021/01/08 11:03:15;;;;;;;18.35;10.28;;;;;;;1.77;80.13;99689.63;1767055;80;21242;-72
2021/01/08 11:05:43;;;;;;;19.45;11.05;;;;;;;1.81;80.05;99687.41;1771665;80;21158;-71
2021/01/08 11:08:11;;;;;;;19.00;9.40;;;;;;;1.83;78.15;99689.55;1761155;80;21256;-67
2021/01/08 11:10:40;;;;;;;17.85;9.58;;;;;;;1.86;78.21;99704.23;1776406;80;21166;-68
2021/01/08 11:13:07;;;;;;;18.77;9.48;;;;;;;1.86;78.25;99698.64;1779927;80;21128;-70
2021/01/08 11:15:36;;;;;;;20.97;10.48;;;;;;;1.88;78.55;99702.05;1785212;80;21150;-71
2021/01/08 11:18:06;;;;;;;15.45;9.10;;;;;;;1.93;78.90;99702.02;1782290;80;21170;-70
2021/01/08 11:20:34;;;;;;;16.42;9.03;;;;;;;1.99;78.58;99703.71;1775234;79;21356;-70
2021/01/08 11:23:03;;;;;;;16.75;8.60;;;;;;;2.00;78.25;99697.22;1780034;79;21199;-70
2021/01/08 11:25:31;;;;;;;18.10;9.70;;;;;;;2.05;78.71;99701.07;1768144;80;21198;-70
2021/01/08 11:28:00;;;;;;;17.95;9.75;;;;;;;2.08;78.80;99696.69;1779898;80;21188;-70
2021/01/08 11:30:28;;;;;;;19.82;9.83;;;;;;;2.11;79.00;99710.08;1775917;80;21754;-70
2021/01/08 11:32:55;;;;;;;20.43;10.95;;;;;;;2.11;78.48;99706.19;1773865;79;21346;-69
2021/01/08 11:35:24;;;;;;;17.98;9.95;;;;;;;2.12;78.48;99711.83;1764047;80;21198;-70
2021/01/08 11:37:53;;;;;;;19.90;10.20;;;;;;;2.12;80.03;99707.04;1779612;80;21594;-71
2021/01/08 11:40:20;;;;;;;22.58;11.03;;;;;;;2.10;78.51;99700.14;1779793;80;21215;-70
2021/01/08 11:42:48;;;;;;;19.65;11.25;;;;;;;2.11;78.46;99706.19;1780022;80;21132;-71
2021/01/08 11:45:16;;;;;;;23.40;12.20;;;;;;;2.10;79.26;99707.93;1780935;80;21618;-70
2021/01/08 11:47:44;;;;;;;22.73;12.85;;;;;;;2.13;78.61;99704.89;1780456;80;21155;-71
2021/01/08 11:50:15;;;;;;;21.07;12.18;;;;;;;2.11;78.39;99698.39;1773788;80;21145;-71
2021/01/08 11:52:42;;;;;;;24.50;12.50;;;;;;;2.12;78.33;99707.92;1779492;80;21176;-70
2021/01/08 11:55:12;;;;;;;23.27;12.65;;;;;;;2.13;77.71;99708.34;1750532;81;21454;-70
2021/01/08 11:57:40;;;;;;;21.68;12.43;;;;;;;2.12;77.28;99707.92;1750387;81;21673;-71
2021/01/08 12:00:10;;;;;;;24.60;12.55;;;;;;;2.13;77.53;99708.78;1768405;79;21583;-70